Porto Di Livorno — IFPU2 — position and weather

sailwx.info

Track history (hours):
 
Tides and Currents Weather Stations Pressure Air Temp Water Temp Dewpoint Dewpoint Depression Visibility Wind Speed Wind Dir Waves Ship Positions

Porto Di Livorno

Last reported at 2017-Jul-25 18:19 UTC. Time now 2017-Jul-26 04:24 UTC.
Position N 43°34' E 010°18'.

Length 24 m; draft 6.1 m.

Type: Tug. MMSI: 247194299.

Date/timePositionNaut miles runAvg speedWind from/ knotsBaromVisibWave heightAir tempDewpointWater temp
2017-Jul-25 18:19N 43°34' E 010°18'1 4.4
2017-Jul-25 18:00N 43°35' E 010°19'2 3.3
2017-Jul-25 17:30N 43°33' E 010°18'1 1.9
2017-Jul-25 17:01N 43°33' E 010°17'2 4.9
2017-Jul-25 16:30N 43°35' E 010°19'1 2.4
2017-Jul-25 16:00N 43°34' E 010°18'0 0.1
2017-Jul-25 15:30N 43°34' E 010°18'0 0.0
2017-Jul-25 15:00N 43°34' E 010°18'0 0.0
2017-Jul-25 14:00N 43°34' E 010°18'0 0.0
2017-Jul-25 13:30N 43°34' E 010°18'0 0.0
2017-Jul-25 13:00N 43°34' E 010°18'0 0.0
2017-Jul-25 12:30N 43°34' E 010°18'1 2.0
2017-Jul-25 12:00N 43°33' E 010°18'2 3.7
2017-Jul-25 11:30N 43°35' E 010°18'0 0.9
2017-Jul-25 11:00N 43°34' E 010°18'0 0.9
2017-Jul-25 10:30N 43°34' E 010°18'0 0.0
2017-Jul-25 10:00N 43°34' E 010°18'0 0.0
2017-Jul-25 09:30N 43°34' E 010°18'0 0.0
2017-Jul-25 09:00N 43°34' E 010°18'0 0.0
2017-Jul-25 08:30N 43°34' E 010°18'0 0.7
2017-Jul-25 08:00N 43°34' E 010°18'0 0.5
2017-Jul-25 07:30N 43°33' E 010°18'2 4.5
2017-Jul-25 07:00N 43°31' E 010°16'2 3.4
2017-Jul-25 06:31N 43°33' E 010°17'1 2.0
2017-Jul-25 06:00N 43°34' E 010°18'0 0.0
2017-Jul-25 05:30N 43°34' E 010°18'1 2.1
2017-Jul-25 05:00N 43°35' E 010°18'2 3.2
2017-Jul-25 04:30N 43°33' E 010°18'1 0.1
2017-Jul-24 17:29N 43°34' E 010°18'1 1.8
2017-Jul-24 17:00N 43°34' E 010°19'0 0.7
2017-Jul-24 16:31N 43°35' E 010°19'1 2.1
2017-Jul-24 16:01N 43°34' E 010°18'0 0.1
2017-Jul-24 13:01N 43°34' E 010°18'0 0.0
2017-Jul-24 12:31N 43°34' E 010°18'0 0.0
2017-Jul-24 12:00N 43°34' E 010°18'1 2.3
2017-Jul-24 11:30N 43°35' E 010°19'0 0.5
2017-Jul-24 11:00N 43°35' E 010°19'1 2.7
2017-Jul-24 10:31N 43°34' E 010°18'0 0.0
2017-Jul-24 10:00N 43°34' E 010°18'0 0.0
2017-Jul-24 09:31N 43°34' E 010°18'0 0.0
2017-Jul-24 09:01N 43°34' E 010°18'0 0.0
2017-Jul-24 08:31N 43°34' E 010°18'0 0.0
2017-Jul-24 08:01N 43°34' E 010°18'1 1.8
2017-Jul-24 07:31N 43°35' E 010°18'2 4.5
2017-Jul-24 07:01N 43°32' E 010°17'1 2.7
2017-Jul-24 06:31N 43°34' E 010°18'0 0.0
2017-Jul-24 06:01N 43°34' E 010°18'0 0.0
2017-Jul-24 05:31N 43°34' E 010°18'0 0.0
2017-Jul-24 05:01N 43°34' E 010°18'0 0.0
2017-Jul-24 04:31N 43°34' E 010°18'0 0.0
2017-Jul-24 04:00N 43°34' E 010°18'0 0.0
2017-Jul-23 17:23N 43°34' E 010°18'1 3.8
2017-Jul-23 17:01N 43°35' E 010°19'0 0.3
2017-Jul-23 16:31N 43°35' E 010°19'1 2.6
2017-Jul-23 16:00N 43°34' E 010°18'1 1.2
2017-Jul-23 15:31N 43°33' E 010°18'1 1.2
2017-Jul-23 15:01N 43°34' E 010°18'0 0.0
2017-Jul-23 14:31N 43°34' E 010°18'0 0.0
2017-Jul-23 14:01N 43°34' E 010°18'0 0.0
2017-Jul-23 13:31N 43°34' E 010°18'0 0.0
2017-Jul-23 13:01N 43°34' E 010°18'0 0.0
2017-Jul-23 12:31N 43°34' E 010°18'0 0.0
2017-Jul-23 12:00N 43°34' E 010°18'0 0.0
2017-Jul-23 11:31N 43°34' E 010°18'0 0.0
2017-Jul-23 11:01N 43°34' E 010°18'0 0.0
2017-Jul-23 10:31N 43°34' E 010°18'0 0.0
2017-Jul-23 10:01N 43°34' E 010°18'0 0.0
2017-Jul-23 09:31N 43°34' E 010°18'1 1.7
2017-Jul-23 09:01N 43°34' E 010°18'0 0.9
2017-Jul-23 08:31N 43°34' E 010°18'1 2.8
2017-Jul-23 08:01N 43°33' E 010°17'0 0.0
2017-Jul-23 07:31N 43°33' E 010°17'2 3.1
2017-Jul-23 07:01N 43°34' E 010°18'0 0.3
2017-Jul-23 06:31N 43°34' E 010°18'0 0.2
2017-Jul-23 06:01N 43°34' E 010°18'0 0.8
2017-Jul-23 05:31N 43°34' E 010°18'3 5.1
2017-Jul-23 05:00N 43°32' E 010°16'1 2.3
2017-Jul-23 04:31N 43°33' E 010°17'1 0.1
2017-Jul-22 15:45N 43°34' E 010°18'0 0.0
2017-Jul-22 15:30N 43°34' E 010°18'0 0.0
2017-Jul-22 15:00N 43°34' E 010°18'0 0.0
2017-Jul-22 14:00N 43°34' E 010°18'0 0.0
2017-Jul-22 13:30N 43°34' E 010°18'0 0.0
2017-Jul-22 13:00N 43°34' E 010°18'0 0.0
2017-Jul-22 12:30N 43°34' E 010°18'0 0.0
2017-Jul-22 12:00N 43°34' E 010°18'0 0.0
2017-Jul-22 11:30N 43°34' E 010°18'0 0.0
2017-Jul-22 11:00N 43°34' E 010°18'0 0.0
2017-Jul-22 10:30N 43°34' E 010°18'1 1.8
2017-Jul-22 10:00N 43°34' E 010°19'1 1.7
2017-Jul-22 09:31N 43°34' E 010°18'0 0.1
2017-Jul-22 09:00N 43°34' E 010°18'0 0.0
2017-Jul-22 08:30N 43°34' E 010°18'0 0.0
2017-Jul-22 08:00N 43°34' E 010°18'1 1.5
2017-Jul-22 07:30N 43°34' E 010°18'1 1.2
2017-Jul-22 07:00N 43°34' E 010°18'2 5.0
2017-Jul-22 06:30N 43°32' E 010°16'0 0.3
2017-Jul-22 06:00N 43°32' E 010°16'3 5.0
2017-Jul-22 05:30N 43°34' E 010°18'0 0.0
2017-Jul-22 05:00N 43°34' E 010°18'0 0.4
2017-Jul-22 04:30N 43°34' E 010°18'0 0.5
2017-Jul-22 04:00N 43°34' E 010°18'3 5.7
2017-Jul-22 03:30N 43°32' E 010°16'2 4.9
2017-Jul-22 03:00N 43°34' E 010°18'0 0.0
2017-Jul-22 02:30N 43°34' E 010°18'0 0.0
2017-Jul-22 02:00N 43°34' E 010°18'0 0.0
2017-Jul-22 01:30N 43°34' E 010°18'0 0.0
2017-Jul-22 01:00N 43°34' E 010°18'0 0.0
2017-Jul-22 00:30N 43°34' E 010°18'0 0.0
2017-Jul-22 00:00N 43°34' E 010°18'0 0.6
2017-Jul-21 23:30N 43°34' E 010°18'1 2.3
2017-Jul-21 23:00N 43°35' E 010°18'1 1.1
2017-Jul-21 22:30N 43°34' E 010°18'0 1.0
2017-Jul-21 22:00N 43°34' E 010°18'0 0.0
2017-Jul-21 21:30N 43°34' E 010°18'0 0.0
2017-Jul-21 21:00N 43°34' E 010°18'0 0.0
2017-Jul-21 20:30N 43°34' E 010°18'0 0.0
2017-Jul-21 20:00N 43°34' E 010°18'0 0.0
2017-Jul-21 19:30N 43°34' E 010°18'1 2.7
2017-Jul-21 19:00N 43°35' E 010°19'1 1.6
2017-Jul-21 18:30N 43°34' E 010°19'1 1.2
2017-Jul-21 18:00N 43°35' E 010°18'2 3.1
2017-Jul-21 17:30N 43°33' E 010°18'1 1.8
2017-Jul-21 17:00N 43°32' E 010°17'1 2.8
2017-Jul-21 16:30N 43°34' E 010°18'0 0.3
2017-Jul-21 16:00N 43°34' E 010°18'0 0.0
2017-Jul-21 15:30N 43°34' E 010°18'0 0.0
2017-Jul-21 15:00N 43°34' E 010°18'0 0.0
2017-Jul-21 14:30N 43°34' E 010°18'0 0.0
2017-Jul-21 14:00N 43°34' E 010°18'0 0.0
2017-Jul-21 13:30N 43°34' E 010°18'0 0.0
2017-Jul-21 13:00N 43°34' E 010°18'0 0.0
2017-Jul-21 12:30N 43°34' E 010°18'0 0.0
2017-Jul-21 12:00N 43°34' E 010°18'0 0.0
2017-Jul-21 11:30N 43°34' E 010°18'0 0.0
2017-Jul-21 11:00N 43°34' E 010°18'0 0.0
2017-Jul-21 10:30N 43°34' E 010°18'0 0.0
2017-Jul-21 10:00N 43°34' E 010°18'1 2.1
2017-Jul-21 09:30N 43°35' E 010°18'1 1.6
2017-Jul-21 09:01N 43°34' E 010°18'0 0.6
2017-Jul-21 08:30N 43°34' E 010°18'0 0.0
2017-Jul-21 08:00N 43°34' E 010°18'0 0.0
2017-Jul-21 07:30N 43°34' E 010°18'0 0.0
2017-Jul-21 07:00N 43°34' E 010°18'0 0.0
2017-Jul-21 06:30N 43°34' E 010°18'0 0.0
2017-Jul-21 06:00N 43°34' E 010°18'0 0.0
2017-Jul-21 05:30N 43°34' E 010°18'0 0.0
2017-Jul-21 05:00N 43°34' E 010°18'0 0.0
2017-Jul-21 04:30N 43°34' E 010°18'0 0.0
2017-Jul-21 04:00N 43°34' E 010°18'0 0.0
2017-Jul-20 15:50N 43°34' E 010°18'0 0.1
2017-Jul-20 15:30N 43°34' E 010°18'1 2.1
2017-Jul-20 15:00N 43°35' E 010°19'1 1.1
2017-Jul-20 14:00N 43°34' E 010°18'0 0.1
2017-Jul-20 13:31N 43°34' E 010°18'1 2.0
2017-Jul-20 13:00N 43°34' E 010°19'1 2.0
2017-Jul-20 12:30N 43°34' E 010°18'0 0.0
2017-Jul-20 12:00N 43°34' E 010°18'0 0.0
2017-Jul-20 11:30N 43°34' E 010°18'0 0.0
2017-Jul-20 11:00N 43°34' E 010°18'0 0.0
2017-Jul-20 10:30N 43°34' E 010°18'0 0.0
2017-Jul-20 10:00N 43°34' E 010°18'0 0.0
2017-Jul-20 09:30N 43°34' E 010°18'0 0.0
2017-Jul-20 09:00N 43°34' E 010°18'0 0.0
2017-Jul-20 08:31N 43°34' E 010°18'0 0.0
2017-Jul-20 07:57N 43°34' E 010°18'0 1.0
2017-Jul-20 07:30N 43°33' E 010°18'0 0.5
2017-Jul-20 07:00N 43°33' E 010°18'1 3.0
2017-Jul-20 06:30N 43°32' E 010°17'1 1.3
2017-Jul-20 06:00N 43°32' E 010°17'1 2.8
2017-Jul-20 05:30N 43°34' E 010°18'0 0.0
2017-Jul-20 05:01N 43°34' E 010°18'0 0.0
2017-Jul-20 04:30N 43°34' E 010°18'1 2.5
2017-Jul-20 04:01N 43°35' E 010°19'2 4.2
2017-Jul-20 03:30N 43°33' E 010°17'1 1.6
2017-Jul-20 03:00N 43°34' E 010°18'0 0.0
2017-Jul-20 02:31N 43°34' E 010°18'0 0.0
2017-Jul-20 02:00N 43°34' E 010°18'0 0.3
2017-Jul-20 01:30N 43°34' E 010°18'0 0.8
2017-Jul-20 01:00N 43°34' E 010°18'1 1.2
2017-Jul-20 00:30N 43°35' E 010°18'1 1.9
2017-Jul-20 00:00N 43°34' E 010°18'0 0.0
2017-Jul-19 23:30N 43°34' E 010°18'0 0.0
2017-Jul-19 23:00N 43°34' E 010°18'0 0.0
2017-Jul-19 22:31N 43°34' E 010°18'1 2.9
2017-Jul-19 22:00N 43°32' E 010°17'2 4.3
2017-Jul-19 21:30N 43°34' E 010°18'0 0.3
2017-Jul-19 21:00N 43°34' E 010°18'1 1.2
2017-Jul-19 20:30N 43°34' E 010°18'0 0.0
2017-Jul-19 20:00N 43°34' E 010°18'0 0.0
2017-Jul-19 19:30N 43°34' E 010°18'0 0.0
2017-Jul-19 19:00N 43°34' E 010°18'1 1.3
2017-Jul-19 18:31N 43°34' E 010°19'0 0.9
2017-Jul-19 18:01N 43°35' E 010°18'1 2.0
2017-Jul-19 17:30N 43°34' E 010°18'1 1.3
2017-Jul-19 17:00N 43°34' E 010°18'0 0.3
2017-Jul-19 16:30N 43°34' E 010°19'1 1.2
2017-Jul-19 16:00N 43°34' E 010°18'0 0.0
2017-Jul-19 13:55N 43°34' E 010°18'0 0.0
2017-Jul-19 13:30N 43°34' E 010°18'0 0.0
2017-Jul-19 13:00N 43°34' E 010°18'0 0.0
2017-Jul-18 16:03N 43°34' E 010°18'0 0.1
2017-Jul-18 16:00N 43°34' E 010°18'1 1.4
2017-Jul-18 15:30N 43°34' E 010°18'2 3.0
2017-Jul-18 15:00N 43°33' E 010°17'1 0.9
2017-Jul-18 14:00N 43°34' E 010°18'0 0.0
2017-Jul-18 13:30N 43°34' E 010°18'0 0.0
2017-Jul-18 13:00N 43°34' E 010°18'0 0.0
2017-Jul-18 12:30N 43°34' E 010°18'0 0.0
2017-Jul-18 12:00N 43°34' E 010°18'0 0.0
2017-Jul-18 11:30N 43°34' E 010°18'1 1.0
2017-Jul-18 11:01N 43°34' E 010°18'0 0.1
2017-Jul-18 10:30N 43°34' E 010°18'0 1.0
2017-Jul-18 10:00N 43°34' E 010°18'0 0.0
2017-Jul-18 09:30N 43°34' E 010°18'0 0.1
2017-Jul-18 09:01N 43°34' E 010°18'1 2.5
2017-Jul-18 08:30N 43°35' E 010°19'1 2.0
2017-Jul-18 07:56N 43°34' E 010°18'0 0.4
2017-Jul-18 07:30N 43°34' E 010°18'0 0.0
2017-Jul-18 07:00N 43°34' E 010°18'0 0.0
2017-Jul-18 06:30N 43°34' E 010°18'0 0.0
2017-Jul-18 06:00N 43°34' E 010°18'0 0.0
2017-Jul-18 05:30N 43°34' E 010°18'0 0.0
2017-Jul-18 05:00N 43°34' E 010°18'0 0.0
2017-Jul-18 04:30N 43°34' E 010°18'0 0.0
2017-Jul-18 04:00N 43°34' E 010°18'0 0.0
2017-Jul-18 03:30N 43°34' E 010°18'0 0.0
2017-Jul-18 03:00N 43°34' E 010°18'0 0.0
2017-Jul-18 02:30N 43°34' E 010°18'1 2.9
2017-Jul-18 02:00N 43°35' E 010°19'0 1.0
2017-Jul-18 01:30N 43°34' E 010°19'1 2.0
2017-Jul-18 01:00N 43°34' E 010°18'0 0.0
2017-Jul-18 00:30N 43°34' E 010°18'0 0.0
2017-Jul-18 00:01N 43°34' E 010°18'1 2.7
2017-Jul-17 23:30N 43°35' E 010°19'1 1.3
2017-Jul-17 23:00N 43°34' E 010°19'1 1.1
2017-Jul-17 22:30N 43°35' E 010°19'1 2.6
2017-Jul-17 22:00N 43°34' E 010°18'0 0.0
2017-Jul-17 21:30N 43°34' E 010°18'0 0.0
2017-Jul-17 21:00N 43°34' E 010°18'0 0.0
2017-Jul-17 20:30N 43°34' E 010°18'0 0.0
2017-Jul-17 20:00N 43°34' E 010°18'0 0.0
2017-Jul-17 19:30N 43°34' E 010°18'0 0.0
2017-Jul-17 19:00N 43°34' E 010°18'1 1.7
2017-Jul-17 18:30N 43°33' E 010°17'1 2.9
2017-Jul-17 18:00N 43°34' E 010°18'0 0.7
2017-Jul-17 17:30N 43°34' E 010°19'1 2.9
2017-Jul-17 17:00N 43°33' E 010°18'1 1.2
2017-Jul-17 16:30N 43°34' E 010°18'0 0.0
2017-Jul-16 16:09N 43°34' E 010°18'0 0.0
2017-Jul-16 16:00N 43°34' E 010°18'1 1.6
2017-Jul-16 15:30N 43°34' E 010°18'1 2.1
2017-Jul-16 15:00N 43°33' E 010°18'1 2.9
2017-Jul-16 14:30N 43°32' E 010°17'1 3.0
2017-Jul-16 14:01N 43°34' E 010°18'0 0.5
2017-Jul-16 13:30N 43°33' E 010°17'1 2.0
2017-Jul-16 13:00N 43°32' E 010°17'1 1.8
2017-Jul-16 12:30N 43°33' E 010°18'1 3.0
2017-Jul-16 12:01N 43°35' E 010°18'0 0.4
2017-Jul-16 11:30N 43°34' E 010°18'1 1.6
2017-Jul-16 11:00N 43°34' E 010°18'0 0.0
2017-Jul-16 10:30N 43°34' E 010°18'0 0.0
2017-Jul-16 10:00N 43°34' E 010°18'0 0.0
2017-Jul-16 09:31N 43°34' E 010°18'0 0.0
2017-Jul-16 09:00N 43°34' E 010°18'0 0.0
2017-Jul-16 08:30N 43°34' E 010°18'1 2.5
2017-Jul-16 08:01N 43°35' E 010°19'1 1.7
2017-Jul-16 07:31N 43°34' E 010°18'0 0.8
2017-Jul-16 07:00N 43°34' E 010°18'0 0.0
2017-Jul-16 06:31N 43°34' E 010°18'0 0.0
2017-Jul-16 06:01N 43°34' E 010°18'1 2.6
2017-Jul-16 05:30N 43°32' E 010°17'3 5.3
2017-Jul-16 05:00N 43°35' E 010°19'0 0.2
2017-Jul-16 04:30N 43°35' E 010°19'  
Track history (hours):
 
Tides and Currents Weather Stations Pressure Air Temp Water Temp Dewpoint Dewpoint Depression Visibility Wind Speed Wind Dir Waves Ship Positions

Porto Di Livorno

Last reported at 2017-Jul-25 18:19 UTC. Time now 2017-Jul-26 04:24 UTC.
Position N 43°34' E 010°18'.

Length 24 m; draft 6.1 m.

Type: Tug. MMSI: 247194299.

Date/timePositionNaut miles runAvg speedWind from/ knotsBaromVisibWave heightAir tempDewpointWater temp
2017-Jul-25 18:19N 43°34' E 010°18'1 4.4
2017-Jul-25 18:00N 43°35' E 010°19'2 3.3
2017-Jul-25 17:30N 43°33' E 010°18'1 1.9
2017-Jul-25 17:01N 43°33' E 010°17'2 4.9
2017-Jul-25 16:30N 43°35' E 010°19'1 2.4
2017-Jul-25 16:00N 43°34' E 010°18'0 0.1
2017-Jul-25 15:30N 43°34' E 010°18'0 0.0
2017-Jul-25 15:00N 43°34' E 010°18'0 0.0
2017-Jul-25 14:00N 43°34' E 010°18'0 0.0
2017-Jul-25 13:30N 43°34' E 010°18'0 0.0
2017-Jul-25 13:00N 43°34' E 010°18'0 0.0
2017-Jul-25 12:30N 43°34' E 010°18'1 2.0
2017-Jul-25 12:00N 43°33' E 010°18'2 3.7
2017-Jul-25 11:30N 43°35' E 010°18'0 0.9
2017-Jul-25 11:00N 43°34' E 010°18'0 0.9
2017-Jul-25 10:30N 43°34' E 010°18'0 0.0
2017-Jul-25 10:00N 43°34' E 010°18'0 0.0
2017-Jul-25 09:30N 43°34' E 010°18'0 0.0
2017-Jul-25 09:00N 43°34' E 010°18'0 0.0
2017-Jul-25 08:30N 43°34' E 010°18'0 0.7
2017-Jul-25 08:00N 43°34' E 010°18'0 0.5
2017-Jul-25 07:30N 43°33' E 010°18'2 4.5
2017-Jul-25 07:00N 43°31' E 010°16'2 3.4
2017-Jul-25 06:31N 43°33' E 010°17'1 2.0
2017-Jul-25 06:00N 43°34' E 010°18'0 0.0
2017-Jul-25 05:30N 43°34' E 010°18'1 2.1
2017-Jul-25 05:00N 43°35' E 010°18'2 3.2
2017-Jul-25 04:30N 43°33' E 010°18'1 0.1
2017-Jul-24 17:29N 43°34' E 010°18'1 1.8
2017-Jul-24 17:00N 43°34' E 010°19'0 0.7
2017-Jul-24 16:31N 43°35' E 010°19'1 2.1
2017-Jul-24 16:01N 43°34' E 010°18'0 0.1
2017-Jul-24 13:01N 43°34' E 010°18'0 0.0
2017-Jul-24 12:31N 43°34' E 010°18'0 0.0
2017-Jul-24 12:00N 43°34' E 010°18'1 2.3
2017-Jul-24 11:30N 43°35' E 010°19'0 0.5
2017-Jul-24 11:00N 43°35' E 010°19'1 2.7
2017-Jul-24 10:31N 43°34' E 010°18'0 0.0
2017-Jul-24 10:00N 43°34' E 010°18'0 0.0
2017-Jul-24 09:31N 43°34' E 010°18'0 0.0
2017-Jul-24 09:01N 43°34' E 010°18'0 0.0
2017-Jul-24 08:31N 43°34' E 010°18'0 0.0
2017-Jul-24 08:01N 43°34' E 010°18'1 1.8
2017-Jul-24 07:31N 43°35' E 010°18'2 4.5
2017-Jul-24 07:01N 43°32' E 010°17'1 2.7
2017-Jul-24 06:31N 43°34' E 010°18'0 0.0
2017-Jul-24 06:01N 43°34' E 010°18'0 0.0
2017-Jul-24 05:31N 43°34' E 010°18'0 0.0
2017-Jul-24 05:01N 43°34' E 010°18'0 0.0
2017-Jul-24 04:31N 43°34' E 010°18'0 0.0
2017-Jul-24 04:00N 43°34' E 010°18'0 0.0
2017-Jul-23 17:23N 43°34' E 010°18'1 3.8
2017-Jul-23 17:01N 43°35' E 010°19'0 0.3
2017-Jul-23 16:31N 43°35' E 010°19'1 2.6
2017-Jul-23 16:00N 43°34' E 010°18'1 1.2
2017-Jul-23 15:31N 43°33' E 010°18'1 1.2
2017-Jul-23 15:01N 43°34' E 010°18'0 0.0
2017-Jul-23 14:31N 43°34' E 010°18'0 0.0
2017-Jul-23 14:01N 43°34' E 010°18'0 0.0
2017-Jul-23 13:31N 43°34' E 010°18'0 0.0
2017-Jul-23 13:01N 43°34' E 010°18'0 0.0
2017-Jul-23 12:31N 43°34' E 010°18'0 0.0
2017-Jul-23 12:00N 43°34' E 010°18'0 0.0
2017-Jul-23 11:31N 43°34' E 010°18'0 0.0
2017-Jul-23 11:01N 43°34' E 010°18'0 0.0
2017-Jul-23 10:31N 43°34' E 010°18'0 0.0
2017-Jul-23 10:01N 43°34' E 010°18'0 0.0
2017-Jul-23 09:31N 43°34' E 010°18'1 1.7
2017-Jul-23 09:01N 43°34' E 010°18'0 0.9
2017-Jul-23 08:31N 43°34' E 010°18'1 2.8
2017-Jul-23 08:01N 43°33' E 010°17'0 0.0
2017-Jul-23 07:31N 43°33' E 010°17'2 3.1
2017-Jul-23 07:01N 43°34' E 010°18'0 0.3
2017-Jul-23 06:31N 43°34' E 010°18'0 0.2
2017-Jul-23 06:01N 43°34' E 010°18'0 0.8
2017-Jul-23 05:31N 43°34' E 010°18'3 5.1
2017-Jul-23 05:00N 43°32' E 010°16'1 2.3
2017-Jul-23 04:31N 43°33' E 010°17'1 0.1
2017-Jul-22 15:45N 43°34' E 010°18'0 0.0
2017-Jul-22 15:30N 43°34' E 010°18'0 0.0
2017-Jul-22 15:00N 43°34' E 010°18'0 0.0
2017-Jul-22 14:00N 43°34' E 010°18'0 0.0
2017-Jul-22 13:30N 43°34' E 010°18'0 0.0
2017-Jul-22 13:00N 43°34' E 010°18'0 0.0
2017-Jul-22 12:30N 43°34' E 010°18'0 0.0
2017-Jul-22 12:00N 43°34' E 010°18'0 0.0
2017-Jul-22 11:30N 43°34' E 010°18'0 0.0
2017-Jul-22 11:00N 43°34' E 010°18'0 0.0
2017-Jul-22 10:30N 43°34' E 010°18'1 1.8
2017-Jul-22 10:00N 43°34' E 010°19'1 1.7
2017-Jul-22 09:31N 43°34' E 010°18'0 0.1
2017-Jul-22 09:00N 43°34' E 010°18'0 0.0
2017-Jul-22 08:30N 43°34' E 010°18'0 0.0
2017-Jul-22 08:00N 43°34' E 010°18'1 1.5
2017-Jul-22 07:30N 43°34' E 010°18'1 1.2
2017-Jul-22 07:00N 43°34' E 010°18'2 5.0
2017-Jul-22 06:30N 43°32' E 010°16'0 0.3
2017-Jul-22 06:00N 43°32' E 010°16'3 5.0
2017-Jul-22 05:30N 43°34' E 010°18'0 0.0
2017-Jul-22 05:00N 43°34' E 010°18'0 0.4
2017-Jul-22 04:30N 43°34' E 010°18'0 0.5
2017-Jul-22 04:00N 43°34' E 010°18'3 5.7
2017-Jul-22 03:30N 43°32' E 010°16'2 4.9
2017-Jul-22 03:00N 43°34' E 010°18'0 0.0
2017-Jul-22 02:30N 43°34' E 010°18'0 0.0
2017-Jul-22 02:00N 43°34' E 010°18'0 0.0
2017-Jul-22 01:30N 43°34' E 010°18'0 0.0
2017-Jul-22 01:00N 43°34' E 010°18'0 0.0
2017-Jul-22 00:30N 43°34' E 010°18'0 0.0
2017-Jul-22 00:00N 43°34' E 010°18'0 0.6
2017-Jul-21 23:30N 43°34' E 010°18'1 2.3
2017-Jul-21 23:00N 43°35' E 010°18'1 1.1
2017-Jul-21 22:30N 43°34' E 010°18'0 1.0
2017-Jul-21 22:00N 43°34' E 010°18'0 0.0
2017-Jul-21 21:30N 43°34' E 010°18'0 0.0
2017-Jul-21 21:00N 43°34' E 010°18'0 0.0
2017-Jul-21 20:30N 43°34' E 010°18'0 0.0
2017-Jul-21 20:00N 43°34' E 010°18'0 0.0
2017-Jul-21 19:30N 43°34' E 010°18'1 2.7
2017-Jul-21 19:00N 43°35' E 010°19'1 1.6
2017-Jul-21 18:30N 43°34' E 010°19'1 1.2
2017-Jul-21 18:00N 43°35' E 010°18'2 3.1
2017-Jul-21 17:30N 43°33' E 010°18'1 1.8
2017-Jul-21 17:00N 43°32' E 010°17'1 2.8
2017-Jul-21 16:30N 43°34' E 010°18'0 0.3
2017-Jul-21 16:00N 43°34' E 010°18'0 0.0
2017-Jul-21 15:30N 43°34' E 010°18'0 0.0
2017-Jul-21 15:00N 43°34' E 010°18'0 0.0
2017-Jul-21 14:30N 43°34' E 010°18'0 0.0
2017-Jul-21 14:00N 43°34' E 010°18'0 0.0
2017-Jul-21 13:30N 43°34' E 010°18'0 0.0
2017-Jul-21 13:00N 43°34' E 010°18'0 0.0
2017-Jul-21 12:30N 43°34' E 010°18'0 0.0
2017-Jul-21 12:00N 43°34' E 010°18'0 0.0
2017-Jul-21 11:30N 43°34' E 010°18'0 0.0
2017-Jul-21 11:00N 43°34' E 010°18'0 0.0
2017-Jul-21 10:30N 43°34' E 010°18'0 0.0
2017-Jul-21 10:00N 43°34' E 010°18'1 2.1
2017-Jul-21 09:30N 43°35' E 010°18'1 1.6
2017-Jul-21 09:01N 43°34' E 010°18'0 0.6
2017-Jul-21 08:30N 43°34' E 010°18'0 0.0
2017-Jul-21 08:00N 43°34' E 010°18'0 0.0
2017-Jul-21 07:30N 43°34' E 010°18'0 0.0
2017-Jul-21 07:00N 43°34' E 010°18'0 0.0
2017-Jul-21 06:30N 43°34' E 010°18'0 0.0
2017-Jul-21 06:00N 43°34' E 010°18'0 0.0
2017-Jul-21 05:30N 43°34' E 010°18'0 0.0
2017-Jul-21 05:00N 43°34' E 010°18'0 0.0
2017-Jul-21 04:30N 43°34' E 010°18'0 0.0
2017-Jul-21 04:00N 43°34' E 010°18'0 0.0
2017-Jul-20 15:50N 43°34' E 010°18'0 0.1
2017-Jul-20 15:30N 43°34' E 010°18'1 2.1
2017-Jul-20 15:00N 43°35' E 010°19'1 1.1
2017-Jul-20 14:00N 43°34' E 010°18'0 0.1
2017-Jul-20 13:31N 43°34' E 010°18'1 2.0
2017-Jul-20 13:00N 43°34' E 010°19'1 2.0
2017-Jul-20 12:30N 43°34' E 010°18'0 0.0
2017-Jul-20 12:00N 43°34' E 010°18'0 0.0
2017-Jul-20 11:30N 43°34' E 010°18'0 0.0
2017-Jul-20 11:00N 43°34' E 010°18'0 0.0
2017-Jul-20 10:30N 43°34' E 010°18'0 0.0
2017-Jul-20 10:00N 43°34' E 010°18'0 0.0
2017-Jul-20 09:30N 43°34' E 010°18'0 0.0
2017-Jul-20 09:00N 43°34' E 010°18'0 0.0
2017-Jul-20 08:31N 43°34' E 010°18'0 0.0
2017-Jul-20 07:57N 43°34' E 010°18'0 1.0
2017-Jul-20 07:30N 43°33' E 010°18'0 0.5
2017-Jul-20 07:00N 43°33' E 010°18'1 3.0
2017-Jul-20 06:30N 43°32' E 010°17'1 1.3
2017-Jul-20 06:00N 43°32' E 010°17'1 2.8
2017-Jul-20 05:30N 43°34' E 010°18'0 0.0
2017-Jul-20 05:01N 43°34' E 010°18'0 0.0
2017-Jul-20 04:30N 43°34' E 010°18'1 2.5
2017-Jul-20 04:01N 43°35' E 010°19'2 4.2
2017-Jul-20 03:30N 43°33' E 010°17'1 1.6
2017-Jul-20 03:00N 43°34' E 010°18'0 0.0
2017-Jul-20 02:31N 43°34' E 010°18'0 0.0
2017-Jul-20 02:00N 43°34' E 010°18'0 0.3
2017-Jul-20 01:30N 43°34' E 010°18'0 0.8
2017-Jul-20 01:00N 43°34' E 010°18'1 1.2
2017-Jul-20 00:30N 43°35' E 010°18'1 1.9
2017-Jul-20 00:00N 43°34' E 010°18'0 0.0
2017-Jul-19 23:30N 43°34' E 010°18'0 0.0
2017-Jul-19 23:00N 43°34' E 010°18'0 0.0
2017-Jul-19 22:31N 43°34' E 010°18'1 2.9
2017-Jul-19 22:00N 43°32' E 010°17'2 4.3
2017-Jul-19 21:30N 43°34' E 010°18'0 0.3
2017-Jul-19 21:00N 43°34' E 010°18'1 1.2
2017-Jul-19 20:30N 43°34' E 010°18'0 0.0
2017-Jul-19 20:00N 43°34' E 010°18'0 0.0
2017-Jul-19 19:30N 43°34' E 010°18'0 0.0
2017-Jul-19 19:00N 43°34' E 010°18'1 1.3
2017-Jul-19 18:31N 43°34' E 010°19'0 0.9
2017-Jul-19 18:01N 43°35' E 010°18'1 2.0
2017-Jul-19 17:30N 43°34' E 010°18'1 1.3
2017-Jul-19 17:00N 43°34' E 010°18'0 0.3
2017-Jul-19 16:30N 43°34' E 010°19'1 1.2
2017-Jul-19 16:00N 43°34' E 010°18'0 0.0
2017-Jul-19 13:55N 43°34' E 010°18'0 0.0
2017-Jul-19 13:30N 43°34' E 010°18'0 0.0
2017-Jul-19 13:00N 43°34' E 010°18'0 0.0
2017-Jul-18 16:03N 43°34' E 010°18'0 0.1
2017-Jul-18 16:00N 43°34' E 010°18'1 1.4
2017-Jul-18 15:30N 43°34' E 010°18'2 3.0
2017-Jul-18 15:00N 43°33' E 010°17'1 0.9
2017-Jul-18 14:00N 43°34' E 010°18'0 0.0
2017-Jul-18 13:30N 43°34' E 010°18'0 0.0
2017-Jul-18 13:00N 43°34' E 010°18'0 0.0
2017-Jul-18 12:30N 43°34' E 010°18'0 0.0
2017-Jul-18 12:00N 43°34' E 010°18'0 0.0
2017-Jul-18 11:30N 43°34' E 010°18'1 1.0
2017-Jul-18 11:01N 43°34' E 010°18'0 0.1
2017-Jul-18 10:30N 43°34' E 010°18'0 1.0
2017-Jul-18 10:00N 43°34' E 010°18'0 0.0
2017-Jul-18 09:30N 43°34' E 010°18'0 0.1
2017-Jul-18 09:01N 43°34' E 010°18'1 2.5
2017-Jul-18 08:30N 43°35' E 010°19'1 2.0
2017-Jul-18 07:56N 43°34' E 010°18'0 0.4
2017-Jul-18 07:30N 43°34' E 010°18'0 0.0
2017-Jul-18 07:00N 43°34' E 010°18'0 0.0
2017-Jul-18 06:30N 43°34' E 010°18'0 0.0
2017-Jul-18 06:00N 43°34' E 010°18'0 0.0
2017-Jul-18 05:30N 43°34' E 010°18'0 0.0
2017-Jul-18 05:00N 43°34' E 010°18'0 0.0
2017-Jul-18 04:30N 43°34' E 010°18'0 0.0
2017-Jul-18 04:00N 43°34' E 010°18'0 0.0
2017-Jul-18 03:30N 43°34' E 010°18'0 0.0
2017-Jul-18 03:00N 43°34' E 010°18'0 0.0
2017-Jul-18 02:30N 43°34' E 010°18'1 2.9
2017-Jul-18 02:00N 43°35' E 010°19'0 1.0
2017-Jul-18 01:30N 43°34' E 010°19'1 2.0
2017-Jul-18 01:00N 43°34' E 010°18'0 0.0
2017-Jul-18 00:30N 43°34' E 010°18'0 0.0
2017-Jul-18 00:01N 43°34' E 010°18'1 2.7
2017-Jul-17 23:30N 43°35' E 010°19'1 1.3
2017-Jul-17 23:00N 43°34' E 010°19'1 1.1
2017-Jul-17 22:30N 43°35' E 010°19'1 2.6
2017-Jul-17 22:00N 43°34' E 010°18'0 0.0
2017-Jul-17 21:30N 43°34' E 010°18'0 0.0
2017-Jul-17 21:00N 43°34' E 010°18'0 0.0
2017-Jul-17 20:30N 43°34' E 010°18'0 0.0
2017-Jul-17 20:00N 43°34' E 010°18'0 0.0
2017-Jul-17 19:30N 43°34' E 010°18'0 0.0
2017-Jul-17 19:00N 43°34' E 010°18'1 1.7
2017-Jul-17 18:30N 43°33' E 010°17'1 2.9
2017-Jul-17 18:00N 43°34' E 010°18'0 0.7
2017-Jul-17 17:30N 43°34' E 010°19'1 2.9
2017-Jul-17 17:00N 43°33' E 010°18'1 1.2
2017-Jul-17 16:30N 43°34' E 010°18'0 0.0
2017-Jul-16 16:09N 43°34' E 010°18'0 0.0
2017-Jul-16 16:00N 43°34' E 010°18'1 1.6
2017-Jul-16 15:30N 43°34' E 010°18'1 2.1
2017-Jul-16 15:00N 43°33' E 010°18'1 2.9
2017-Jul-16 14:30N 43°32' E 010°17'1 3.0
2017-Jul-16 14:01N 43°34' E 010°18'0 0.5
2017-Jul-16 13:30N 43°33' E 010°17'1 2.0
2017-Jul-16 13:00N 43°32' E 010°17'1 1.8
2017-Jul-16 12:30N 43°33' E 010°18'1 3.0
2017-Jul-16 12:01N 43°35' E 010°18'0 0.4
2017-Jul-16 11:30N 43°34' E 010°18'1 1.6
2017-Jul-16 11:00N 43°34' E 010°18'0 0.0
2017-Jul-16 10:30N 43°34' E 010°18'0 0.0
2017-Jul-16 10:00N 43°34' E 010°18'0 0.0
2017-Jul-16 09:31N 43°34' E 010°18'0 0.0
2017-Jul-16 09:00N 43°34' E 010°18'0 0.0
2017-Jul-16 08:30N 43°34' E 010°18'1 2.5
2017-Jul-16 08:01N 43°35' E 010°19'1 1.7
2017-Jul-16 07:31N 43°34' E 010°18'0 0.8
2017-Jul-16 07:00N 43°34' E 010°18'0 0.0
2017-Jul-16 06:31N 43°34' E 010°18'0 0.0
2017-Jul-16 06:01N 43°34' E 010°18'1 2.6
2017-Jul-16 05:30N 43°32' E 010°17'3 5.3
2017-Jul-16 05:00N 43°35' E 010°19'0 0.2
2017-Jul-16 04:30N 43°35' E 010°19'  

Dump ship's entire track history